Řízení letového provozu České republiky
Letiste: LKPD Aktualizace: 13.11.2019 19:00:25  UTC
 METAR LKPD 13.11. 19:00 ...
METAR LKPD 131900Z 25009KT 8000 -RA BKN007 OVC014 02/02 Q1005 NOSIG RMK GRN GRN=
 TAF LKPD 13.11. 17:00 ...
TAF LKPD 131700Z 1318/1418 27005KT 8000 RA BKN010 OVC025      TEMPO 1318/1323 2000 SNRA BKN004      BECMG 1400/1402 09005KT CAVOK      TEMPO 1403/1409 3000 BR      PROB30 TEMPO 1404/1408 0700 FZFG=